createdAt,value
2022-12-19T00:04:19.881Z,11.80
2022-12-19T00:09:22.624Z,10.70
2022-12-19T00:14:25.304Z,10.10
2022-12-19T00:19:28.271Z,10.20
2022-12-19T00:24:30.995Z,10.40
2022-12-19T00:29:34.574Z,10.40
2022-12-19T00:34:39.307Z,10.60
2022-12-19T00:39:42.073Z,10.80
2022-12-19T00:44:44.804Z,9.90
2022-12-19T00:49:47.979Z,9.80
2022-12-19T00:54:52.486Z,10.90
2022-12-19T00:59:55.331Z,10.80
2022-12-19T01:04:58.199Z,10.30
2022-12-19T01:10:00.938Z,9.60
2022-12-19T01:15:05.285Z,10.70
2022-12-19T01:20:10.314Z,10.30
2022-12-19T01:25:13.703Z,10.80
2022-12-19T01:30:16.457Z,9.20
2022-12-19T01:35:21.612Z,9.80
2022-12-19T01:40:24.994Z,11.10
2022-12-19T01:45:38.385Z,11.10
2022-12-19T01:51:06.086Z,11.80
2022-12-19T01:56:09.870Z,12.90
2022-12-19T02:01:14.258Z,13.00
2022-12-19T02:06:17.233Z,13.60
2022-12-19T02:11:19.984Z,13.30
2022-12-19T02:16:58.918Z,13.30
2022-12-19T02:22:13.700Z,14.30
2022-12-19T02:28:03.821Z,14.50
2022-12-19T02:33:17.289Z,13.70
2022-12-19T02:38:40.440Z,14.30
2022-12-19T02:43:46.425Z,13.30
2022-12-19T02:48:51.862Z,15.60
2022-12-19T02:53:54.633Z,16.10
2022-12-19T02:59:41.386Z,15.90
2022-12-19T03:05:07.111Z,15.70
2022-12-19T03:10:41.390Z,15.50
2022-12-19T03:15:44.175Z,16.00
2022-12-19T03:21:16.078Z,16.10
2022-12-19T03:26:21.940Z,15.40
2022-12-19T03:31:27.879Z,14.80
2022-12-19T03:36:39.554Z,15.60
2022-12-19T03:42:01.864Z,12.60
2022-12-19T03:47:23.344Z,14.50
2022-12-19T03:52:42.096Z,15.90
2022-12-19T03:58:18.191Z,14.60
2022-12-19T04:03:21.995Z,14.50
2022-12-19T04:08:24.743Z,15.30
2022-12-19T04:13:55.403Z,15.40
2022-12-19T04:19:15.440Z,14.20
2022-12-19T04:24:32.350Z,14.50
2022-12-19T04:29:35.774Z,14.20
2022-12-19T04:34:42.658Z,14.10
2022-12-19T04:39:45.948Z,13.80
2022-12-19T04:44:48.657Z,12.70
2022-12-19T04:49:51.921Z,15.20
2022-12-19T04:54:54.768Z,14.40
2022-12-19T04:59:59.035Z,13.00
2022-12-19T05:05:02.223Z,14.50
2022-12-19T05:10:06.532Z,14.10
2022-12-19T05:15:09.910Z,14.10
2022-12-19T05:20:14.737Z,13.60
2022-12-19T05:25:20.902Z,13.90
2022-12-19T05:30:26.122Z,14.60
2022-12-19T05:35:28.877Z,15.50
2022-12-19T05:40:32.592Z,13.80
2022-12-19T05:45:35.431Z,15.00
2022-12-19T05:50:38.380Z,14.70
2022-12-19T05:55:41.396Z,14.10
2022-12-19T06:00:44.228Z,14.70
2022-12-19T06:05:48.330Z,15.80
2022-12-19T06:10:51.331Z,15.80
2022-12-19T06:16:08.703Z,15.30
2022-12-19T06:21:21.012Z,14.10
2022-12-19T06:26:25.380Z,14.20
2022-12-19T06:31:29.684Z,15.50
2022-12-19T06:36:32.501Z,15.30
2022-12-19T06:41:55.183Z,15.80
2022-12-19T06:46:57.908Z,16.50
2022-12-19T06:52:03.937Z,15.70
2022-12-19T06:57:09.159Z,18.60
2022-12-19T07:02:18.007Z,16.30
2022-12-19T07:07:20.906Z,15.80
2022-12-19T07:12:23.691Z,16.50
2022-12-19T07:17:27.470Z,16.50
2022-12-19T07:22:32.289Z,16.60
2022-12-19T07:27:37.111Z,17.30
2022-12-19T07:32:39.993Z,16.40
2022-12-19T07:37:42.701Z,16.30
2022-12-19T07:42:45.602Z,16.30
2022-12-19T07:47:48.433Z,17.50
2022-12-19T07:52:51.219Z,18.40
2022-12-19T07:57:55.658Z,18.30
2022-12-19T08:02:59.919Z,19.40
2022-12-19T08:08:03.406Z,18.30
2022-12-19T08:13:06.290Z,17.30
2022-12-19T08:18:09.259Z,17.80
2022-12-19T08:23:12.095Z,19.60
2022-12-19T08:28:14.945Z,21.10
2022-12-19T08:33:17.747Z,19.80
2022-12-19T08:38:20.606Z,20.60
2022-12-19T08:43:23.427Z,20.30
2022-12-19T08:48:26.560Z,19.90
2022-12-19T08:53:30.867Z,19.40
2022-12-19T08:58:33.962Z,18.10
2022-12-19T09:04:13.387Z,19.60
2022-12-19T09:09:00.887Z,17.00
2022-12-19T09:14:05.196Z,18.40
2022-12-19T09:19:08.049Z,15.90
2022-12-19T09:24:11.260Z,17.40
2022-12-19T09:29:20.666Z,16.90
2022-12-19T09:34:38.074Z,16.70
2022-12-19T09:39:42.605Z,17.60
2022-12-19T09:45:32.231Z,16.90
2022-12-19T09:50:48.129Z,17.00
2022-12-19T09:55:51.356Z,16.20
2022-12-19T10:00:59.625Z,14.80
2022-12-19T10:07:07.615Z,15.50
2022-12-19T10:12:42.260Z,15.50
2022-12-19T10:18:11.136Z,15.00
2022-12-19T10:23:51.426Z,14.10
2022-12-19T10:29:13.523Z,14.00
2022-12-19T10:34:25.929Z,14.60
2022-12-19T10:39:47.118Z,15.10
2022-12-19T10:44:50.318Z,15.00
2022-12-19T10:49:53.106Z,14.60
2022-12-19T10:54:56.064Z,14.40
2022-12-19T11:00:01.888Z,14.50
2022-12-19T11:05:47.477Z,14.90
2022-12-19T11:15:50.729Z,14.90
2022-12-19T11:23:27.061Z,14.70
2022-12-19T11:29:41.631Z,14.90
2022-12-19T11:30:45.317Z,13.90
2022-12-19T11:33:18.528Z,13.50
2022-12-19T11:38:48.603Z,13.90
2022-12-19T11:44:03.474Z,14.60
2022-12-19T11:49:26.106Z,15.50
2022-12-19T11:54:36.194Z,13.60
2022-12-19T11:59:39.046Z,14.80
2022-12-19T12:05:26.656Z,14.60
2022-12-19T12:16:15.923Z,14.30
2022-12-19T12:28:33.722Z,15.20
2022-12-19T12:31:20.455Z,15.20
2022-12-19T12:31:47.316Z,16.00
2022-12-19T12:35:33.625Z,16.50
2022-12-19T12:44:09.698Z,16.60
2022-12-19T12:49:35.202Z,19.10
2022-12-19T12:54:40.914Z,16.10
2022-12-19T12:59:46.203Z,15.70
2022-12-19T13:04:58.686Z,15.30
2022-12-19T13:10:18.774Z,16.90
2022-12-19T13:15:27.778Z,17.00
2022-12-19T13:20:42.230Z,17.10
2022-12-19T13:25:44.936Z,17.60
2022-12-19T13:31:20.908Z,17.70
2022-12-19T13:39:46.922Z,17.30
2022-12-19T13:42:28.965Z,17.10
2022-12-19T13:47:38.153Z,17.80
2022-12-19T13:52:42.221Z,15.90
2022-12-19T13:57:49.327Z,15.10
2022-12-19T14:02:55.905Z,16.00
2022-12-19T14:08:02.289Z,16.50
2022-12-19T14:13:59.391Z,18.50
2022-12-19T14:18:50.011Z,16.00
2022-12-19T14:24:25.064Z,17.50
2022-12-19T14:30:26.671Z,16.20
2022-12-19T14:36:06.196Z,17.50
2022-12-19T14:40:33.240Z,17.40
2022-12-19T14:51:42.838Z,19.10
2022-12-19T14:54:37.729Z,19.40
2022-12-19T14:57:34.039Z,19.30
2022-12-19T15:02:44.039Z,19.40
2022-12-19T15:07:52.065Z,18.80
2022-12-19T15:14:48.068Z,18.10
2022-12-19T15:18:40.072Z,21.10
2022-12-19T15:23:49.360Z,21.10
2022-12-19T15:28:53.583Z,20.50
2022-12-19T15:39:19.963Z,16.80
2022-12-19T15:44:40.261Z,18.80
2022-12-19T15:49:43.031Z,18.60
2022-12-19T15:54:48.362Z,19.20
2022-12-19T15:59:52.442Z,20.20
2022-12-19T16:05:01.709Z,19.80
2022-12-19T16:10:08.510Z,19.40
2022-12-19T16:15:21.413Z,19.30
2022-12-19T16:20:39.496Z,17.90
2022-12-19T16:25:48.652Z,19.00
2022-12-19T16:30:51.484Z,18.40
2022-12-19T16:36:04.117Z,19.20
2022-12-19T16:41:41.927Z,20.70
2022-12-19T16:51:54.319Z,21.00
2022-12-19T16:56:57.037Z,20.10
2022-12-19T17:02:00.226Z,17.50
2022-12-19T17:07:10.133Z,21.20
2022-12-19T17:12:17.268Z,20.10
2022-12-19T17:17:19.997Z,20.90
2022-12-19T17:22:22.772Z,21.40
2022-12-19T17:27:26.163Z,20.50
2022-12-19T17:32:28.967Z,22.30
2022-12-19T17:37:32.039Z,22.30
2022-12-19T17:42:37.561Z,21.70
2022-12-19T17:47:40.865Z,21.50
2022-12-19T17:52:43.608Z,21.10
2022-12-19T17:57:46.671Z,22.60
2022-12-19T18:02:56.273Z,22.00
2022-12-19T18:07:59.245Z,20.50
2022-12-19T18:13:02.074Z,20.50
2022-12-19T18:18:05.138Z,21.50
2022-12-19T18:23:18.230Z,21.00
2022-12-19T18:28:21.005Z,21.30
2022-12-19T18:33:23.880Z,22.20
2022-12-19T18:38:27.333Z,21.50
2022-12-19T18:43:31.165Z,20.80
2022-12-19T18:48:39.464Z,21.70
2022-12-19T18:53:42.356Z,21.80
2022-12-19T18:58:45.217Z,22.90
2022-12-19T19:03:56.345Z,22.20
2022-12-19T19:09:00.294Z,22.90
2022-12-19T19:14:03.035Z,22.60
2022-12-19T19:19:08.692Z,22.30
2022-12-19T19:24:19.646Z,23.90
2022-12-19T19:29:22.399Z,24.50
2022-12-19T19:34:31.314Z,19.60
2022-12-19T19:39:34.714Z,23.80
2022-12-19T19:44:37.760Z,25.70
2022-12-19T19:49:40.589Z,24.60
2022-12-19T19:54:43.748Z,23.50
2022-12-19T19:59:46.638Z,25.90
2022-12-19T20:04:50.136Z,24.10
2022-12-19T20:09:54.005Z,25.60
2022-12-19T20:14:57.008Z,25.80
2022-12-19T20:20:01.089Z,26.50
2022-12-19T20:25:04.093Z,25.40
2022-12-19T20:30:07.837Z,27.40
2022-12-19T20:35:14.476Z,25.70
2022-12-19T20:40:18.054Z,24.10
2022-12-19T20:45:22.990Z,26.60
2022-12-19T20:50:26.095Z,23.90
2022-12-19T20:55:29.161Z,27.00
2022-12-19T21:00:32.145Z,27.30
2022-12-19T21:05:35.018Z,23.20
2022-12-19T21:10:37.998Z,24.50
2022-12-19T21:15:41.028Z,23.80
2022-12-19T21:20:43.915Z,24.60
2022-12-19T21:25:46.697Z,26.00
2022-12-19T21:31:02.020Z,24.20
2022-12-19T21:36:10.162Z,27.70
2022-12-19T21:41:18.578Z,26.50
2022-12-19T21:46:24.425Z,22.70
2022-12-19T21:51:29.493Z,25.60
2022-12-19T21:56:39.923Z,24.80
2022-12-19T22:01:43.166Z,25.50
2022-12-19T22:06:46.338Z,24.50
2022-12-19T22:11:50.102Z,23.40
2022-12-19T22:16:53.009Z,24.50
2022-12-19T22:21:55.843Z,23.50
2022-12-19T22:26:58.556Z,25.50
2022-12-19T22:32:01.348Z,24.10
2022-12-19T22:37:04.691Z,23.70
2022-12-19T22:42:07.537Z,24.00
2022-12-19T22:47:10.909Z,22.20
2022-12-19T22:52:15.945Z,23.70
2022-12-19T22:57:18.666Z,23.40
2022-12-19T23:02:21.690Z,23.00
2022-12-19T23:07:26.172Z,23.10
2022-12-19T23:12:28.906Z,23.70
2022-12-19T23:17:31.619Z,21.80
2022-12-19T23:22:34.666Z,23.30
2022-12-19T23:27:37.524Z,23.10
2022-12-19T23:32:45.481Z,22.60
2022-12-19T23:37:51.642Z,22.00
2022-12-19T23:42:54.723Z,21.90
2022-12-19T23:47:57.548Z,22.70
2022-12-19T23:53:00.423Z,20.50
2022-12-19T23:58:06.685Z,21.70
